createdAt,value
2017-09-12T00:01:17.882Z,1.93
2017-09-12T00:03:45.281Z,2.70
2017-09-12T00:06:12.666Z,2.73
2017-09-12T00:08:39.987Z,2.73
2017-09-12T00:11:07.301Z,2.00
2017-09-12T00:13:34.976Z,2.33
2017-09-12T00:16:02.387Z,2.30
2017-09-12T00:18:29.663Z,2.63
2017-09-12T00:20:57.022Z,2.57
2017-09-12T00:23:24.331Z,3.23
2017-09-12T00:25:51.709Z,2.73
2017-09-12T00:28:19.039Z,3.00
2017-09-12T00:30:46.312Z,2.70
2017-09-12T00:33:13.637Z,3.47
2017-09-12T00:35:40.988Z,2.53
2017-09-12T00:38:08.267Z,2.40
2017-09-12T00:40:35.563Z,3.13
2017-09-12T00:43:03.102Z,2.63
2017-09-12T00:45:30.432Z,2.67
2017-09-12T00:47:57.754Z,2.50
2017-09-12T00:50:25.060Z,2.67
2017-09-12T00:52:52.390Z,2.87
2017-09-12T00:55:19.720Z,2.33
2017-09-12T00:57:47.067Z,3.00
2017-09-12T01:00:14.402Z,3.40
2017-09-12T01:02:41.690Z,3.60
2017-09-12T01:05:09.039Z,2.67
2017-09-12T01:07:36.331Z,2.53
2017-09-12T01:10:03.632Z,2.60
2017-09-12T01:12:30.948Z,3.23
2017-09-12T01:14:58.275Z,3.10
2017-09-12T01:17:25.619Z,3.20
2017-09-12T01:19:52.932Z,2.17
2017-09-12T01:22:20.231Z,2.40
2017-09-12T01:24:47.562Z,2.90
2017-09-12T01:27:14.875Z,2.30
2017-09-12T01:29:42.139Z,2.50
2017-09-12T01:32:09.512Z,2.60
2017-09-12T01:34:36.789Z,3.47
2017-09-12T01:37:04.140Z,2.50
2017-09-12T01:39:31.426Z,2.50
2017-09-12T01:41:58.707Z,3.63
2017-09-12T01:44:26.050Z,3.03
2017-09-12T01:46:53.364Z,2.47
2017-09-12T01:49:20.720Z,2.50
2017-09-12T01:51:48.142Z,3.20
2017-09-12T01:54:15.454Z,2.33
2017-09-12T01:56:42.753Z,3.00
2017-09-12T01:59:10.087Z,3.07
2017-09-12T02:01:37.402Z,2.47
2017-09-12T02:04:04.732Z,2.70
2017-09-12T02:06:32.019Z,2.87
2017-09-12T02:08:59.319Z,2.77
2017-09-12T02:11:26.672Z,2.50
2017-09-12T02:13:53.989Z,2.77
2017-09-12T02:16:21.363Z,2.90
2017-09-12T02:18:48.740Z,2.80
2017-09-12T02:21:16.064Z,3.60
2017-09-12T02:23:43.359Z,2.70
2017-09-12T02:26:10.640Z,2.40
2017-09-12T02:28:37.989Z,2.77
2017-09-12T02:31:05.273Z,2.97
2017-09-12T02:33:32.578Z,3.20
2017-09-12T02:35:59.923Z,2.53
2017-09-12T02:38:27.283Z,2.43
2017-09-12T02:40:54.591Z,2.30
2017-09-12T02:43:21.866Z,3.63
2017-09-12T02:45:49.135Z,2.37
2017-09-12T02:48:16.478Z,2.00
2017-09-12T02:50:43.758Z,2.90
2017-09-12T02:53:11.093Z,2.60
2017-09-12T02:55:38.437Z,2.50
2017-09-12T02:58:05.717Z,3.03
2017-09-12T03:00:33.076Z,2.90
2017-09-12T03:03:00.360Z,2.00
2017-09-12T03:05:27.658Z,2.70
2017-09-12T03:07:54.996Z,2.80
2017-09-12T03:10:22.368Z,2.50
2017-09-12T03:12:49.688Z,3.03
2017-09-12T03:15:16.998Z,2.80
2017-09-12T03:17:44.345Z,2.70
2017-09-12T03:20:11.709Z,3.00
2017-09-12T03:22:39.020Z,2.80
2017-09-12T03:25:06.319Z,3.23
2017-09-12T03:27:33.649Z,3.03
2017-09-12T03:30:00.993Z,3.50
2017-09-12T03:32:28.303Z,2.77
2017-09-12T03:34:55.638Z,2.87
2017-09-12T03:37:22.998Z,2.80
2017-09-12T03:39:50.268Z,2.73
2017-09-12T03:42:17.582Z,2.70
2017-09-12T03:44:44.918Z,2.60
2017-09-12T03:47:12.239Z,3.27
2017-09-12T03:49:39.646Z,2.63
2017-09-12T03:52:06.964Z,2.60
2017-09-12T03:54:34.316Z,2.80
2017-09-12T03:57:01.642Z,3.53
2017-09-12T03:59:28.984Z,2.60
2017-09-12T04:01:56.335Z,2.50
2017-09-12T04:04:23.630Z,3.27
2017-09-12T04:06:51.111Z,3.20
2017-09-12T04:09:18.390Z,2.40
2017-09-12T04:11:45.790Z,2.73
2017-09-12T04:14:13.111Z,2.27
2017-09-12T04:16:40.467Z,2.73
2017-09-12T04:19:07.819Z,2.80
2017-09-12T04:21:35.132Z,2.70
2017-09-12T04:24:02.438Z,2.47
2017-09-12T04:26:29.811Z,2.67
2017-09-12T04:28:57.105Z,2.73
2017-09-12T04:31:24.495Z,2.50
2017-09-12T04:33:51.849Z,2.50
2017-09-12T04:36:19.144Z,2.40
2017-09-12T04:38:46.543Z,2.50
2017-09-12T04:41:13.955Z,3.00
2017-09-12T04:43:41.292Z,3.50
2017-09-12T04:46:08.659Z,3.03
2017-09-12T04:48:36.039Z,3.10
2017-09-12T04:51:03.401Z,3.50
2017-09-12T04:53:30.766Z,3.00
2017-09-12T04:55:58.070Z,3.50
2017-09-12T04:58:25.440Z,4.10
2017-09-12T05:00:52.741Z,3.60
2017-09-12T05:03:20.043Z,2.97
2017-09-12T05:05:47.370Z,3.30
2017-09-12T05:08:14.659Z,3.00
2017-09-12T05:10:41.959Z,2.57
2017-09-12T05:13:09.266Z,2.47
2017-09-12T05:15:36.686Z,2.73
2017-09-12T05:18:03.986Z,3.00
2017-09-12T05:20:31.271Z,2.90
2017-09-12T05:22:58.564Z,2.10
2017-09-12T05:25:25.908Z,3.27
2017-09-12T05:27:53.219Z,3.37
2017-09-12T05:30:20.562Z,2.97
2017-09-12T05:32:47.863Z,3.30
2017-09-12T05:35:15.233Z,3.43
2017-09-12T05:37:42.543Z,2.40
2017-09-12T05:40:09.842Z,3.43
2017-09-12T05:42:37.170Z,2.73
2017-09-12T05:45:04.485Z,2.93
2017-09-12T05:47:31.822Z,3.10
2017-09-12T05:49:59.140Z,3.10
2017-09-12T05:52:26.467Z,3.23
2017-09-12T05:54:53.762Z,2.97
2017-09-12T05:57:21.095Z,2.53
2017-09-12T05:59:48.384Z,3.57
2017-09-12T06:02:15.689Z,3.13
2017-09-12T06:04:43.003Z,3.00
2017-09-12T06:07:11.094Z,2.67
2017-09-12T06:09:39.385Z,3.73
2017-09-12T06:12:06.671Z,2.60
2017-09-12T06:14:34.084Z,3.13
2017-09-12T06:17:01.419Z,3.20
2017-09-12T06:19:28.759Z,2.50
2017-09-12T06:21:56.051Z,2.83
2017-09-12T06:24:23.388Z,2.87
2017-09-12T06:29:24.323Z,2.83
2017-09-12T06:31:51.618Z,2.67
2017-09-12T06:34:18.887Z,2.87
2017-09-12T06:36:46.247Z,3.30
2017-09-12T06:39:13.595Z,2.83
2017-09-12T06:41:40.894Z,2.50
2017-09-12T06:44:08.197Z,2.80
2017-09-12T06:46:35.480Z,3.07
2017-09-12T06:49:02.808Z,2.87
2017-09-12T06:51:30.092Z,2.73
2017-09-12T06:53:57.423Z,2.90
2017-09-12T06:56:24.736Z,2.50
2017-09-12T06:58:52.038Z,3.90
2017-09-12T07:01:19.367Z,2.90
2017-09-12T07:03:46.716Z,3.60
2017-09-12T07:06:14.013Z,2.67
2017-09-12T07:08:41.316Z,3.33
2017-09-12T07:11:08.596Z,2.53
2017-09-12T07:13:35.927Z,2.90
2017-09-12T07:16:03.195Z,2.50
2017-09-12T07:18:30.515Z,2.90
2017-09-12T07:20:57.861Z,2.40
2017-09-12T07:23:25.203Z,2.70
2017-09-12T07:25:52.531Z,2.70
2017-09-12T07:28:19.795Z,2.67
2017-09-12T07:30:47.106Z,2.27
2017-09-12T07:33:14.583Z,3.33
2017-09-12T07:35:41.851Z,2.70
2017-09-12T07:38:09.135Z,2.90
2017-09-12T07:40:36.455Z,2.63
2017-09-12T07:43:03.763Z,3.30
2017-09-12T07:45:31.076Z,3.13
2017-09-12T07:47:58.395Z,2.50
2017-09-12T07:50:25.762Z,3.13
2017-09-12T07:52:53.087Z,2.63
2017-09-12T07:55:20.387Z,2.43
2017-09-12T07:57:47.679Z,2.90
2017-09-12T08:00:14.981Z,2.47
2017-09-12T08:02:42.317Z,2.63
2017-09-12T08:05:09.626Z,2.07
2017-09-12T08:07:36.949Z,2.80
2017-09-12T08:10:04.232Z,2.27
2017-09-12T08:12:31.545Z,3.03
2017-09-12T08:14:58.854Z,2.43
2017-09-12T08:17:26.116Z,2.07
2017-09-12T08:19:53.431Z,2.47
2017-09-12T08:22:20.698Z,2.63
2017-09-12T08:24:48.011Z,2.63
2017-09-12T08:27:15.286Z,2.93
2017-09-12T08:29:42.568Z,2.90
2017-09-12T08:32:09.884Z,2.20
2017-09-12T08:34:37.183Z,1.70
2017-09-12T08:37:04.501Z,2.27
2017-09-12T08:39:31.799Z,2.43
2017-09-12T08:41:59.148Z,3.03
2017-09-12T08:44:26.451Z,3.07
2017-09-12T08:46:53.814Z,2.13
2017-09-12T08:49:21.098Z,2.43
2017-09-12T08:51:48.453Z,2.03
2017-09-12T08:54:15.754Z,2.37
2017-09-12T08:56:43.071Z,1.90
2017-09-12T08:59:10.351Z,2.17
2017-09-12T09:01:37.625Z,1.97
2017-09-12T09:04:04.946Z,2.30
2017-09-12T09:06:32.216Z,1.77
2017-09-12T09:08:59.536Z,2.23
2017-09-12T09:11:26.847Z,2.00
2017-09-12T09:13:54.146Z,1.93
2017-09-12T09:16:21.490Z,2.10
2017-09-12T09:18:48.805Z,1.73
2017-09-12T09:21:16.069Z,2.47
2017-09-12T09:23:43.350Z,2.77
2017-09-12T09:26:10.668Z,1.67
2017-09-12T09:28:38.082Z,2.50
2017-09-12T09:31:05.415Z,2.20
2017-09-12T09:33:32.715Z,2.07
2017-09-12T09:36:00.019Z,2.40
2017-09-12T09:38:27.334Z,2.00
2017-09-12T09:40:54.645Z,2.37
2017-09-12T09:43:21.947Z,2.27
2017-09-12T09:45:49.223Z,1.80
2017-09-12T09:48:18.063Z,2.03
2017-09-12T09:50:45.373Z,1.73
2017-09-12T09:53:13.129Z,1.60
2017-09-12T09:55:41.014Z,1.63
2017-09-12T09:58:08.368Z,1.43
2017-09-12T10:00:35.650Z,1.40
2017-09-12T10:03:02.929Z,1.33
2017-09-12T10:05:30.286Z,1.50
2017-09-12T10:07:57.642Z,1.60
2017-09-12T10:10:24.946Z,1.87
2017-09-12T10:12:52.233Z,1.77
2017-09-12T10:15:19.555Z,1.47
2017-09-12T10:17:46.844Z,1.50
2017-09-12T10:20:14.164Z,1.90
2017-09-12T10:22:41.446Z,1.60
2017-09-12T10:25:08.731Z,1.10
2017-09-12T10:27:36.028Z,1.33
2017-09-12T10:30:03.325Z,1.07
2017-09-12T10:32:30.653Z,1.00
2017-09-12T10:34:57.982Z,1.07
2017-09-12T10:37:25.249Z,1.30
2017-09-12T10:39:52.527Z,1.20
2017-09-12T10:42:19.860Z,1.17
2017-09-12T10:44:47.133Z,1.60
2017-09-12T10:47:14.462Z,1.20
2017-09-12T10:49:41.731Z,1.33
2017-09-12T10:52:09.095Z,1.00
2017-09-12T10:54:36.406Z,1.20
2017-09-12T10:57:03.658Z,1.60
2017-09-12T10:59:30.975Z,1.30
2017-09-12T11:01:58.267Z,1.40
2017-09-12T11:04:25.639Z,1.47
2017-09-12T11:06:52.980Z,1.83
2017-09-12T11:09:20.279Z,1.27
2017-09-12T11:11:47.553Z,2.00
2017-09-12T11:14:14.866Z,1.47
2017-09-12T11:16:42.136Z,1.60
2017-09-12T11:19:09.455Z,1.20
2017-09-12T11:21:36.731Z,1.77
2017-09-12T11:24:03.995Z,1.33
2017-09-12T11:26:31.275Z,1.83
2017-09-12T11:28:58.551Z,1.37
2017-09-12T11:31:25.855Z,1.13
2017-09-12T11:33:53.128Z,1.43
2017-09-12T11:36:20.419Z,1.30
2017-09-12T11:38:47.691Z,1.20
2017-09-12T11:41:14.979Z,1.67
2017-09-12T11:43:42.251Z,1.20
2017-09-12T11:46:09.558Z,1.60
2017-09-12T11:48:36.851Z,1.43
2017-09-12T11:51:04.137Z,1.13
2017-09-12T11:53:31.415Z,1.67
2017-09-12T11:55:58.698Z,1.40
2017-09-12T11:58:25.964Z,1.77
2017-09-12T12:00:53.241Z,1.87
2017-09-12T12:03:20.516Z,1.80
2017-09-12T12:05:47.791Z,1.67
2017-09-12T12:08:15.055Z,1.37
2017-09-12T12:10:42.352Z,1.97
2017-09-12T12:13:09.610Z,1.47
2017-09-12T12:15:37.699Z,1.70
2017-09-12T12:18:05.048Z,1.33
2017-09-12T12:20:32.573Z,1.40
2017-09-12T12:23:00.083Z,1.40
2017-09-12T12:25:27.347Z,1.40
2017-09-12T12:27:54.636Z,1.60
2017-09-12T12:30:21.920Z,1.57
2017-09-12T12:32:49.215Z,1.50
2017-09-12T12:35:16.471Z,1.10
2017-09-12T12:37:43.749Z,1.10
2017-09-12T12:40:11.016Z,1.10
2017-09-12T12:42:38.295Z,1.87
2017-09-12T12:45:05.567Z,1.10
2017-09-12T12:47:32.843Z,1.40
2017-09-12T12:50:00.120Z,1.40
2017-09-12T12:52:27.403Z,1.50
2017-09-12T12:54:54.664Z,1.40
2017-09-12T12:57:21.948Z,1.30
2017-09-12T12:59:49.211Z,1.37
2017-09-12T13:02:16.498Z,1.53
2017-09-12T13:04:43.758Z,1.43
2017-09-12T13:07:11.043Z,1.30
2017-09-12T13:09:38.563Z,1.10
2017-09-12T13:12:05.844Z,1.20
2017-09-12T13:14:33.116Z,1.20
2017-09-12T13:17:00.400Z,1.20
2017-09-12T13:19:27.669Z,1.30
2017-09-12T13:21:54.973Z,1.50
2017-09-12T13:24:22.267Z,1.57
2017-09-12T13:26:49.528Z,1.30
2017-09-12T13:29:16.802Z,1.40
2017-09-12T13:31:44.062Z,1.30
2017-09-12T13:34:11.351Z,2.30
2017-09-12T13:36:38.675Z,1.50
2017-09-12T13:39:05.963Z,2.00
2017-09-12T13:41:33.247Z,1.80
2017-09-12T13:44:00.527Z,2.00
2017-09-12T13:46:27.790Z,2.53
2017-09-12T13:48:55.075Z,1.57
2017-09-12T13:51:22.547Z,1.53
2017-09-12T13:53:49.830Z,2.60
2017-09-12T13:56:17.105Z,1.60
2017-09-12T13:58:44.388Z,1.60
2017-09-12T14:01:11.670Z,1.80
2017-09-12T14:03:38.972Z,1.43
2017-09-12T14:06:06.250Z,1.50
2017-09-12T14:08:33.609Z,1.20
2017-09-12T14:11:00.846Z,1.43
2017-09-12T14:13:28.131Z,1.50
2017-09-12T14:15:55.402Z,0.90
2017-09-12T14:18:22.668Z,1.10
2017-09-12T14:20:49.957Z,1.00
2017-09-12T14:23:17.222Z,1.10
2017-09-12T14:25:44.639Z,1.30
2017-09-12T14:28:11.962Z,1.27
2017-09-12T14:30:39.283Z,1.30
2017-09-12T14:33:06.708Z,1.73
2017-09-12T14:35:34.019Z,1.00
2017-09-12T14:38:01.294Z,1.27
2017-09-12T14:40:28.585Z,1.30
2017-09-12T14:42:55.857Z,1.40
2017-09-12T14:45:23.147Z,1.20
2017-09-12T14:47:50.416Z,1.20
2017-09-12T14:50:17.695Z,1.20
2017-09-12T14:52:44.963Z,1.57
2017-09-12T14:55:12.248Z,1.33
2017-09-12T14:57:39.515Z,1.50
2017-09-12T15:00:06.829Z,1.27
2017-09-12T15:02:34.088Z,1.87
2017-09-12T15:05:01.385Z,1.60
2017-09-12T15:07:28.643Z,1.50
2017-09-12T15:09:55.935Z,1.77
2017-09-12T15:12:23.197Z,1.30
2017-09-12T15:14:50.490Z,1.70
2017-09-12T15:17:17.779Z,1.97
2017-09-12T15:19:45.043Z,1.63
2017-09-12T15:22:12.325Z,1.37
2017-09-12T15:24:39.590Z,1.60
2017-09-12T15:27:06.888Z,1.03
2017-09-12T15:29:34.152Z,1.50
2017-09-12T15:32:01.439Z,1.50
2017-09-12T15:34:28.715Z,1.70
2017-09-12T15:36:56.010Z,1.30
2017-09-12T15:39:23.315Z,1.30
2017-09-12T15:41:50.593Z,1.47
2017-09-12T15:44:17.867Z,1.70
2017-09-12T15:46:45.155Z,1.83
2017-09-12T15:49:12.423Z,1.33
2017-09-12T15:51:39.728Z,1.50
2017-09-12T15:54:07.021Z,1.70
2017-09-12T15:56:35.827Z,1.93
2017-09-12T15:59:03.490Z,1.60
2017-09-12T16:01:30.775Z,1.50
2017-09-12T16:03:58.038Z,1.60
2017-09-12T16:06:25.323Z,1.70
2017-09-12T16:08:52.596Z,1.40
2017-09-12T16:11:19.880Z,2.00
2017-09-12T16:13:47.158Z,2.10
2017-09-12T16:16:14.440Z,1.53
2017-09-12T16:18:41.754Z,1.40
2017-09-12T16:21:09.017Z,1.40
2017-09-12T16:23:36.311Z,1.43
2017-09-12T16:26:03.582Z,1.50
2017-09-12T16:28:30.885Z,1.80
2017-09-12T16:30:58.162Z,2.00
2017-09-12T16:33:25.450Z,1.53
2017-09-12T16:35:52.740Z,2.23
2017-09-12T16:38:20.017Z,1.10
2017-09-12T16:40:47.291Z,1.37
2017-09-12T16:43:14.622Z,1.13
2017-09-12T16:45:41.872Z,1.33
2017-09-12T16:48:09.180Z,1.27
2017-09-12T16:50:36.448Z,1.33
2017-09-12T16:53:03.749Z,1.27
2017-09-12T16:55:31.024Z,1.50
2017-09-12T16:57:58.313Z,1.30
2017-09-12T17:00:25.616Z,1.47
2017-09-12T17:02:52.914Z,1.07
2017-09-12T17:05:20.204Z,1.50
2017-09-12T17:07:47.498Z,1.40
2017-09-12T17:10:14.751Z,1.13
2017-09-12T17:12:42.284Z,1.03
2017-09-12T17:15:09.568Z,1.50
2017-09-12T17:17:36.857Z,1.10
2017-09-12T17:20:04.133Z,1.23
2017-09-12T17:22:31.418Z,0.93
2017-09-12T17:24:58.731Z,1.23
2017-09-12T17:27:26.023Z,1.20
2017-09-12T17:29:53.339Z,0.90
2017-09-12T17:32:20.609Z,1.10
2017-09-12T17:34:47.920Z,1.23
2017-09-12T17:37:15.199Z,1.00
2017-09-12T17:39:42.497Z,1.03
2017-09-12T17:42:09.757Z,1.20
2017-09-12T17:44:37.299Z,1.20
2017-09-12T17:47:04.695Z,1.20
2017-09-12T17:49:32.008Z,2.53
2017-09-12T17:52:00.851Z,1.53
2017-09-12T17:54:31.013Z,1.60
2017-09-12T17:56:58.443Z,1.37
2017-09-12T17:59:25.776Z,1.50
2017-09-12T18:01:53.055Z,1.60
2017-09-12T18:04:20.372Z,1.40
2017-09-12T18:06:47.689Z,2.00
2017-09-12T18:09:15.029Z,1.40
2017-09-12T18:11:42.291Z,1.53
2017-09-12T18:14:09.572Z,1.90
2017-09-12T18:16:36.881Z,1.60
2017-09-12T18:19:05.113Z,1.60
2017-09-12T18:21:32.469Z,1.60
2017-09-12T18:23:59.735Z,1.23
2017-09-12T18:26:27.010Z,2.57
2017-09-12T18:28:54.292Z,2.10
2017-09-12T18:31:21.669Z,1.60
2017-09-12T18:33:48.961Z,1.80
2017-09-12T18:36:16.267Z,1.60
2017-09-12T18:38:43.530Z,2.43
2017-09-12T18:41:10.850Z,1.80
2017-09-12T18:43:38.117Z,2.20
2017-09-12T18:46:05.415Z,2.10
2017-09-12T18:48:32.686Z,1.67
2017-09-12T18:50:59.998Z,2.10
2017-09-12T18:53:27.272Z,2.07
2017-09-12T18:55:54.566Z,1.77
2017-09-12T18:58:21.841Z,2.13
2017-09-12T19:00:49.184Z,1.53
2017-09-12T19:03:16.474Z,2.13
2017-09-12T19:05:43.778Z,1.63
2017-09-12T19:08:11.051Z,2.07
2017-09-12T19:10:38.349Z,1.40
2017-09-12T19:13:05.692Z,1.57
2017-09-12T19:15:32.979Z,1.60
2017-09-12T19:18:00.266Z,1.60
2017-09-12T19:20:27.549Z,1.53
2017-09-12T19:22:54.842Z,2.30
2017-09-12T19:25:22.149Z,1.77
2017-09-12T19:27:49.435Z,1.73
2017-09-12T19:30:16.731Z,2.07
2017-09-12T19:32:44.044Z,1.60
2017-09-12T19:35:11.315Z,2.20
2017-09-12T19:37:38.613Z,1.80
2017-09-12T19:40:05.892Z,2.37
2017-09-12T19:42:33.190Z,2.13
2017-09-12T19:45:00.501Z,2.10
2017-09-12T19:47:27.804Z,2.20
2017-09-12T19:49:55.090Z,2.20
2017-09-12T19:52:22.393Z,2.20
2017-09-12T19:54:49.662Z,2.00
2017-09-12T19:57:16.961Z,1.80
2017-09-12T19:59:44.246Z,1.70
2017-09-12T20:02:11.537Z,2.07
2017-09-12T20:04:38.811Z,1.97
2017-09-12T20:07:06.118Z,1.60
2017-09-12T20:09:33.416Z,1.67
2017-09-12T20:12:00.718Z,2.30
2017-09-12T20:14:28.010Z,1.40
2017-09-12T20:16:55.298Z,1.50
2017-09-12T20:19:22.584Z,2.17
2017-09-12T20:21:49.884Z,2.23
2017-09-12T20:24:17.185Z,1.80
2017-09-12T20:26:44.466Z,2.23
2017-09-12T20:29:11.771Z,1.93
2017-09-12T20:31:39.057Z,1.87
2017-09-12T20:34:06.351Z,1.70
2017-09-12T20:36:33.647Z,1.60
2017-09-12T20:39:00.972Z,1.57
2017-09-12T20:41:28.259Z,1.70
2017-09-12T20:43:55.583Z,2.10
2017-09-12T20:46:22.856Z,1.97
2017-09-12T20:48:50.146Z,1.50
2017-09-12T20:51:17.455Z,1.43
2017-09-12T20:53:44.755Z,1.90
2017-09-12T20:56:12.036Z,1.83
2017-09-12T20:58:39.334Z,2.00
2017-09-12T21:01:06.704Z,1.30
2017-09-12T21:03:34.003Z,1.60
2017-09-12T21:06:01.336Z,1.60
2017-09-12T21:08:28.611Z,1.37
2017-09-12T21:10:55.910Z,1.50
2017-09-12T21:13:23.238Z,1.83
2017-09-12T21:15:50.559Z,1.70
2017-09-12T21:18:17.838Z,2.00
2017-09-12T21:20:45.155Z,1.50
2017-09-12T21:23:12.445Z,2.10
2017-09-12T21:25:39.763Z,1.53
2017-09-12T21:28:07.039Z,1.30
2017-09-12T21:30:34.330Z,2.00
2017-09-12T21:33:01.622Z,1.60
2017-09-12T21:35:28.957Z,1.47
2017-09-12T21:37:56.213Z,1.67
2017-09-12T21:40:23.544Z,1.70
2017-09-12T21:42:50.871Z,2.00
2017-09-12T21:45:18.173Z,1.50
2017-09-12T21:47:45.459Z,1.60
2017-09-12T21:50:12.748Z,1.80
2017-09-12T21:52:40.044Z,1.87
2017-09-12T21:55:07.343Z,1.70
2017-09-12T21:57:34.649Z,2.00
2017-09-12T22:00:01.943Z,1.80
2017-09-12T22:02:29.240Z,2.03
2017-09-12T22:04:56.556Z,1.40
2017-09-12T22:07:23.849Z,1.70
2017-09-12T22:09:51.123Z,2.40
2017-09-12T22:14:52.074Z,1.73
2017-09-12T22:17:19.399Z,2.40
2017-09-12T22:19:46.682Z,2.27
2017-09-12T22:22:14.007Z,2.07
2017-09-12T22:24:41.294Z,1.83
2017-09-12T22:27:08.676Z,2.43
2017-09-12T22:29:36.078Z,1.90
2017-09-12T22:32:03.401Z,2.83
2017-09-12T22:34:30.680Z,2.20
2017-09-12T22:36:57.990Z,2.20
2017-09-12T22:39:25.284Z,2.30
2017-09-12T22:41:52.589Z,2.50
2017-09-12T22:44:19.887Z,2.03
2017-09-12T22:46:47.237Z,2.40
2017-09-12T22:49:14.553Z,2.33
2017-09-12T22:51:41.841Z,1.90
2017-09-12T22:54:09.178Z,2.13
2017-09-12T22:56:36.505Z,1.70
2017-09-12T22:59:03.798Z,2.40
2017-09-12T23:01:31.101Z,2.37
2017-09-12T23:03:58.384Z,2.20
2017-09-12T23:06:25.743Z,2.30
2017-09-12T23:08:53.042Z,2.33
2017-09-12T23:11:20.340Z,2.20
2017-09-12T23:13:47.895Z,2.40
2017-09-12T23:16:15.187Z,2.60
2017-09-12T23:18:42.561Z,2.20
2017-09-12T23:21:09.855Z,2.30
2017-09-12T23:23:37.160Z,2.33
2017-09-12T23:26:04.442Z,2.50
2017-09-12T23:28:31.756Z,2.60
2017-09-12T23:30:59.044Z,1.90
2017-09-12T23:33:26.358Z,2.53
2017-09-12T23:35:53.637Z,2.20
2017-09-12T23:38:20.971Z,2.80
2017-09-12T23:40:48.277Z,2.37
2017-09-12T23:43:15.592Z,2.30
2017-09-12T23:45:42.904Z,2.50
2017-09-12T23:48:10.245Z,2.80
2017-09-12T23:50:37.585Z,2.70
2017-09-12T23:53:04.890Z,2.33
2017-09-12T23:55:32.205Z,2.90
2017-09-12T23:57:59.585Z,2.40
